Gainesville, AL

9:12 PM CST on March 03, 2015 (GMT -0600)
Meridian Naval Air Station | Change Station
CLOSE
Current Station
Airport
Location: Meridian NAS,
Elevation: 318 ft
Nearby Weather Stations

Elev 318 ft 32.55 °N, 88.56 °W | Updated 16 minutes ago

Partly Cloudy
Partly Cloudy
67 °F
Feels Like 67 °F
N
7
Wind Variable Wind from South

Today
High -- | Low -- °F
--% Chance of Precip.
Yesterday
High -- | Low -- °F
Precip. -- in
6:18 AM 5:51 PM
Waxing Gibbous, 98% visible
Pressure 30.04 in
Visibility 10.0 miles
Clouds Mostly Cloudy 2000 ft
Overcast 6000 ft
Dew Point 63 °F
Humidity 87%
Rainfall 0.03 in
Snow Depth Not available.
UV 0 out of 12
Pollen 6.80 out of 12
Air Quality Not available.
Flu Activity Not available.
METAR KNMM 040256Z 17006KT 10SM BKN020 OVC060 19/17 A3002 RMK AO2 SLP173 T01940172 51009 $

More Conditions Fewer Conditions

Pressure 30.04 in
Visibility 10.0 miles
Clouds Mostly Cloudy 2000 ft
Overcast 6000 ft
Dew Point 63 °F
Humidity 87%
Rainfall 0.03 in
Snow Depth Not available.
UV 0 out of 12
Pollen 6.80 out of 12
Air Quality Not available.
Flu Activity Not available.
METAR KNMM 040256Z 17006KT 10SM BKN020 OVC060 19/17 A3002 RMK AO2 SLP173 T01940172 51009 $

More Conditions Fewer Conditions

10-Day Weather Forecast

Almanac

Astronomy

Mar. 03, 2015 Rise Set
Actual Time
Civil Twilight
Nautical Twilight
Astronomical Twilight
Moon
Length of Visible Light
Length of Day
Tomorrow will be .
, % of the Moon is Illuminated

Today's Extremes

State Highs State Lows

Community

WunderPhotos

Upload Photos

1,802,374 photos uploaded!

WunderBlogs® & News

Nearby

Air Quality

  Air Quality AQ Index Pollutant
Not available.

Snow Depth

Station Depth Elevation

Earthquake Activity

City Distance Mag. Time & Date
Minimum magnitude displayed is 2.5.

Coastal Water Temperatures

Place Temperature

Nearby Weather Stations